Davis Monthan Air Force Base
KDMA : now visible

Airfield :











YOU CAN JOIN US ON...

 
LOGIN :

Register | Disclaimer

   EN    FR    IT 

 









Legend :    VFR   Marginal VFR   IFR   Intensive IFR   Very Intensive IFR
Visi :
Ceiling :
>= 8 km
>= 3000ft
5 to 8 km
1000 to 3000 ft
1500m to 5 km
500 to 1000 ft
800 to 1500m
200 to 500 ft
< 800m
< 200 ft
Symbols :   Thunderstorms  Fog  Heavy snow  Heavy precipitations  Wind > 20 kt






- Airport Elevation : 2704 ft


KDMA - Davis Monthan Air Force Base

CURRENT METAR :
  • 190158Z AUTO 32004KT 10SM CLR 23/M04 A2994 RMK AO2 SLP112 T02251038 $

EXPIRED METARs :
  • 190058Z AUTO 28008KT 10SM CLR 24/M04 A2993 RMK AO2 SLP107 T02351038 $

TAF TAF KDMA
Valid from the 18 at 22:00 until the 20 at 04:00 UTC


182210Z 1822/2004 30006KT 9999 OVC210 QNH2992INS
BECMG 1901/1902 15006KT 9999 BKN210 QNH2992INS
BECMG 1911/1912 15006KT 9999 BKN070 QNH2993INS
BECMG 1913/1914 15006KT 9999 OVC060 QNH2990INS
BECMG 1918/1919 VRB06KT 9000 -SHRA OVC060 QNH2985INS
TEMPO 1921/2004 VRB10G18KT 6000 -TSRA BKN030CB TX28/1823Z TN12/1913Z



MET'MAP, your aeronautical weather chart ! - Copyright ORBIFLY December 2007 - Disclaimer

ORBIFLY MET'MAP TEAM :

Programming & Development : Alexandra Zaïnal
Concept & Development : Baudouin d'Aumeries
Co-Development & Prog : Marc-Olivier Méhu
Technical & hardware support : Manuel Goepfert

Contact : metmap@orbifly.com




SOURCES & CREDITS :

   NOAA       Earth
Advisory